Private Wetterstation Wechselburg
Wetterdaten: Woche 10.07.23 - 16.07.23 (KW28)
Datum Zeit Temp. +2m Bodentemp. Temp.+5cm Temp. Wind Windchill X Diff Temp. Feuchte +2m Feuchte +5cm Luftdruck Regen Wind Richtung Sonnenschein Taupunkt Windchill Windben
10.07.2023 00:00 20,6 C 21,9 C 19,8 C 20,2 C 19,5 C 0,0 C 74 % 69 % 1019,2 hPa 0,0 l/m 0,0 km/h (0 Bft) N 0,00 h 15,8 C 19,5 C 0,0 km/h (0 Bft)
10.07.2023 01:00 19,5 C 21,9 C 18,9 C 19,2 C 18,5 C 0,0 C 77 % 72 % 1018,9 hPa 0,0 l/m 0,0 km/h (0 Bft) N 0,00 h 15,3 C 18,5 C 0,0 km/h (0 Bft)
10.07.2023 02:00 19,2 C 21,7 C 19,2 C 19,2 C 19,0 C 0,0 C 78 % 71 % 1018,6 hPa 0,0 l/m 0,1 km/h (0 Bft) N 0,00 h 15,3 C 19,0 C 0,1 km/h (0 Bft)
10.07.2023 03:00 21,1 C 21,5 C 21,1 C 21,4 C 21,4 C 0,3 C 67 % 58 % 1019,2 hPa 0,0 l/m 0,3 km/h (0 Bft) NO 0,00 h 14,6 C 21,4 C 0,2 km/h (0 Bft)
10.07.2023 04:00 21,4 C 21,4 C 20,5 C 21,1 C 20,5 C 0,0 C 63 % 57 % 1018,8 hPa 0,0 l/m 0,5 km/h (0 Bft) O-NO 0,00 h 13,9 C 20,5 C 0,6 km/h (0 Bft)
10.07.2023 05:00 19,8 C 21,2 C 18,9 C 19,4 C 18,7 C 0,0 C 68 % 63 % 1018,7 hPa 0,0 l/m 0,0 km/h (0 Bft) N 0,00 h 13,7 C 18,7 C 0,0 km/h (0 Bft)
10.07.2023 06:00 19,8 C 21,1 C 19,5 C 20,1 C 20,1 C 0,3 C 72 % 65 % 1018,5 hPa 0,0 l/m 0,0 km/h (0 Bft) N 0,00 h 14,5 C 20,1 C 0,0 km/h (0 Bft)
10.07.2023 07:00 21,0 C 21,1 C 20,7 C 22,3 C 22,3 C 1,3 C 72 % 67 % 1018,6 hPa 0,0 l/m 0,0 km/h (0 Bft) N 0,00 h 15,7 C 22,3 C 0,0 km/h (0 Bft)
10.07.2023 08:00 22,9 C 21,1 C 22,3 C 25,5 C 25,5 C 2,6 C 70 % 67 % 1018,1 hPa 0,0 l/m 0,0 km/h (0 Bft) N 0,23 h 17,0 C 25,5 C 0,0 km/h (0 Bft)
10.07.2023 09:00 26,0 C 21,0 C 23,7 C 30,8 C 30,8 C 4,8 C 61 % 66 % 1017,9 hPa 0,0 l/m 0,0 km/h (0 Bft) N 1,00 h 18,0 C 30,8 C 0,0 km/h (0 Bft)
10.07.2023 10:00 28,4 C 21,1 C 26,3 C 33,4 C 33,4 C 5,0 C 51 % 56 % 1017,8 hPa 0,0 l/m 0,1 km/h (0 Bft) N 1,00 h 17,3 C 33,4 C 1,7 km/h (1 Bft)
10.07.2023 11:00 29,4 C 21,1 C 27,9 C 34,0 C 34,0 C 4,6 C 49 % 51 % 1018,0 hPa 0,0 l/m 0,4 km/h (0 Bft) N 1,00 h 17,4 C 34,0 C 1,0 km/h (0 Bft)
10.07.2023 12:00 29,8 C 21,3 C 28,3 C 35,0 C 35,0 C 5,1 C 52 % 53 % 1018,5 hPa 0,0 l/m 0,8 km/h (0 Bft) W-SW 1,00 h 18,9 C 35,0 C 2,6 km/h (1 Bft)
10.07.2023 13:00 31,1 C 21,5 C 29,4 C 36,0 C 36,0 C 4,9 C 49 % 51 % 1018,4 hPa 0,0 l/m 1,2 km/h (1 Bft) S-SW 1,00 h 19,1 C 36,0 C 2,4 km/h (1 Bft)
10.07.2023 14:00 30,9 C 21,7 C 30,4 C 35,6 C 35,6 C 4,7 C 51 % 51 % 1018,5 hPa 0,0 l/m 2,2 km/h (1 Bft) SW 1,00 h 19,4 C 35,6 C 5,9 km/h (2 Bft)
10.07.2023 15:00 28,9 C 21,9 C 28,7 C 33,7 C 33,7 C 4,8 C 57 % 56 % 1019,3 hPa 0,0 l/m 2,8 km/h (1 Bft) W-SW 1,00 h 19,5 C 33,7 C 7,8 km/h (2 Bft)
10.07.2023 16:00 27,2 C 22,1 C 27,4 C 32,0 C 32,0 C 4,8 C 61 % 58 % 1019,8 hPa 0,0 l/m 2,1 km/h (1 Bft) NO 1,00 h 19,0 C 32,0 C 4,4 km/h (1 Bft)
10.07.2023 17:00 26,6 C 22,2 C 26,8 C 29,3 C 29,3 C 2,6 C 61 % 57 % 1019,6 hPa 0,0 l/m 1,6 km/h (1 Bft) W-SW 0,08 h 18,5 C 29,3 C 1,2 km/h (1 Bft)
10.07.2023 18:00 26,2 C 22,2 C 25,8 C 27,5 C 27,5 C 1,4 C 60 % 56 % 1019,8 hPa 0,0 l/m 0,8 km/h (0 Bft) W 0,00 h 17,8 C 27,5 C 2,3 km/h (1 Bft)
10.07.2023 19:00 25,8 C 22,2 C 25,2 C 27,7 C 27,7 C 1,9 C 60 % 56 % 1019,7 hPa 0,0 l/m 0,5 km/h (0 Bft) S-SW 0,08 h 17,3 C 27,7 C 1,1 km/h (1 Bft)
10.07.2023 20:00 24,8 C 22,1 C 24,1 C 25,3 C 25,3 C 0,5 C 60 % 56 % 1019,9 hPa 0,0 l/m 0,3 km/h (0 Bft) N 0,15 h 16,6 C 25,3 C 0,6 km/h (0 Bft)
10.07.2023 21:00 23,0 C 22,1 C 21,6 C 22,6 C 21,6 C 0,0 C 65 % 63 % 1020,1 hPa 0,0 l/m 0,0 km/h (0 Bft) N 0,00 h 16,1 C 21,6 C 0,0 km/h (0 Bft)
10.07.2023 22:00 20,7 C 22,1 C 19,4 C 20,0 C 18,8 C 0,0 C 72 % 70 % 1020,3 hPa 0,0 l/m 0,0 km/h (0 Bft) N 0,00 h 15,5 C 18,8 C 0,0 km/h (0 Bft)
10.07.2023 23:00 19,0 C 22,2 C 18,0 C 18,4 C 17,2 C 0,0 C 77 % 75 % 1020,6 hPa 0,0 l/m 0,0 km/h (0 Bft) N 0,00 h 15,0 C 17,2 C 0,0 km/h (0 Bft)
11.07.2023 00:00 17,8 C 22,2 C 16,9 C 17,2 C 16,0 C 0,0 C 80 % 78 % 1020,5 hPa 0,0 l/m 0,0 km/h (0 Bft) N 0,00 h 14,3 C 16,0 C 0,0 km/h (0 Bft)
11.07.2023 01:00 16,9 C 22,1 C 16,0 C 16,3 C 15,2 C 0,0 C 82 % 80 % 1020,5 hPa 0,0 l/m 0,0 km/h (0 Bft) N 0,00 h 13,8 C 15,2 C 0,0 km/h (0 Bft)
11.07.2023 02:00 15,9 C 21,9 C 15,1 C 15,4 C 14,4 C 0,0 C 84 % 80 % 1020,3 hPa 0,0 l/m 0,0 km/h (0 Bft) N 0,00 h 13,1 C 14,4 C 0,0 km/h (0 Bft)
11.07.2023 03:00 15,1 C 21,7 C 14,4 C 14,6 C 13,6 C 0,0 C 85 % 81 % 1020,2 hPa 0,0 l/m 0,0 km/h (0 Bft) N 0,00 h 12,5 C 13,6 C 0,0 km/h (0 Bft)
11.07.2023 04:00 14,4 C 21,6 C 13,9 C 14,0 C 13,2 C 0,0 C 86 % 82 % 1020,1 hPa 0,0 l/m 0,0 km/h (0 Bft) N 0,00 h 12,0 C 13,2 C 0,0 km/h (0 Bft)
11.07.2023 05:00 14,0 C 21,3 C 13,6 C 13,6 C 13,0 C 0,0 C 86 % 81 % 1020,2 hPa 0,0 l/m 0,0 km/h (0 Bft) N 0,00 h 11,7 C 13,0 C 0,0 km/h (0 Bft)
11.07.2023 06:00 13,9 C 21,1 C 13,9 C 13,9 C 13,6 C 0,1 C 87 % 82 % 1020,2 hPa 0,0 l/m 0,0 km/h (0 Bft) N 0,00 h 11,9 C 13,6 C 0,0 km/h (0 Bft)
11.07.2023 07:00 15,2 C 20,8 C 16,4 C 23,5 C 23,5 C 8,3 C 88 % 81 % 1019,9 hPa 0,0 l/m 0,0 km/h (0 Bft) N 0,83 h 13,1 C 23,5 C 0,0 km/h (0 Bft)
11.07.2023 08:00 20,2 C 20,5 C 19,3 C 31,1 C 31,1 C 11,0 C 81 % 77 % 1019,6 hPa 0,0 l/m 0,4 km/h (0 Bft) NO 1,00 h 16,8 C 31,1 C 1,2 km/h (1 Bft)
11.07.2023 09:00 24,0 C 20,4 C 22,7 C 29,0 C 29,0 C 5,0 C 62 % 59 % 1018,9 hPa 0,0 l/m 2,3 km/h (1 Bft) O-NO 0,67 h 16,2 C 29,0 C 4,7 km/h (1 Bft)
11.07.2023 10:00 25,2 C 20,4 C 24,2 C 30,3 C 30,3 C 5,1 C 55 % 52 % 1018,4 hPa 0,0 l/m 1,4 km/h (1 Bft) NO 0,58 h 15,6 C 30,3 C 2,9 km/h (1 Bft)
11.07.2023 11:00 26,5 C 20,5 C 25,4 C 33,1 C 33,1 C 6,6 C 51 % 49 % 1017,8 hPa 0,0 l/m 1,3 km/h (1 Bft) NO 1,00 h 15,4 C 33,1 C 2,5 km/h (1 Bft)
11.07.2023 12:00 28,2 C 20,6 C 26,9 C 35,1 C 35,1 C 6,9 C 49 % 49 % 1016,9 hPa 0,0 l/m 0,9 km/h (0 Bft) NO 1,00 h 16,4 C 35,1 C 3,0 km/h (1 Bft)
11.07.2023 13:00 32,1 C 20,9 C 28,4 C 37,2 C 37,2 C 5,2 C 43 % 48 % 1016,1 hPa 0,0 l/m 0,2 km/h (0 Bft) N 1,00 h 17,7 C 37,2 C 0,3 km/h (0 Bft)
11.07.2023 14:00 32,0 C 21,1 C 30,6 C 37,2 C 37,2 C 5,2 C 42 % 45 % 1015,1 hPa 0,0 l/m 1,2 km/h (1 Bft) N-NO 1,00 h 17,4 C 37,2 C 1,1 km/h (1 Bft)
11.07.2023 15:00 32,2 C 21,3 C 31,2 C 38,4 C 38,4 C 6,1 C 40 % 44 % 1014,3 hPa 0,0 l/m 0,5 km/h (0 Bft) W-SW 1,00 h 17,0 C 38,4 C 1,1 km/h (0 Bft)
11.07.2023 16:00 33,0 C 21,5 C 32,5 C 39,1 C 39,1 C 6,1 C 38 % 43 % 1013,8 hPa 0,0 l/m 0,2 km/h (0 Bft) N 1,00 h 16,9 C 39,1 C 0,4 km/h (0 Bft)
11.07.2023 17:00 33,6 C 21,7 C 32,5 C 36,1 C 36,1 C 2,5 C 37 % 42 % 1012,9 hPa 0,0 l/m 0,1 km/h (0 Bft) N 0,25 h 16,8 C 36,1 C 0,1 km/h (0 Bft)
11.07.2023 18:00 33,6 C 21,9 C 31,9 C 34,8 C 34,8 C 1,2 C 37 % 41 % 1012,4 hPa 0,0 l/m 0,1 km/h (0 Bft) N 0,00 h 16,8 C 34,8 C 0,0 km/h (0 Bft)
11.07.2023 19:00 32,8 C 22,1 C 30,3 C 34,4 C 34,4 C 1,6 C 40 % 45 % 1011,9 hPa 0,0 l/m 0,0 km/h (0 Bft) N 0,08 h 17,3 C 34,4 C 0,0 km/h (0 Bft)
11.07.2023 20:00 30,8 C 22,3 C 27,9 C 31,3 C 31,2 C 0,5 C 46 % 52 % 1011,5 hPa 0,0 l/m 0,0 km/h (0 Bft) N 0,30 h 17,8 C 31,2 C 0,0 km/h (0 Bft)
11.07.2023 21:00 27,1 C 22,4 C 24,8 C 26,6 C 25,5 C 0,0 C 57 % 60 % 1010,8 hPa 0,0 l/m 0,0 km/h (0 Bft) N 0,00 h 17,6 C 25,5 C 0,0 km/h (0 Bft)
11.07.2023 22:00 24,3 C 22,5 C 22,9 C 23,8 C 22,9 C 0,0 C 66 % 67 % 1010,3 hPa 0,0 l/m 0,0 km/h (0 Bft) N 0,00 h 17,6 C 22,9 C 0,0 km/h (0 Bft)
11.07.2023 23:00 23,1 C 22,4 C 22,5 C 22,8 C 22,3 C 0,0 C 69 % 66 % 1010,0 hPa 0,0 l/m 0,0 km/h (0 Bft) N 0,00 h 17,0 C 22,3 C 0,0 km/h (0 Bft)
12.07.2023 00:00 24,0 C 22,3 C 23,2 C 23,8 C 23,5 C 0,0 C 63 % 61 % 1009,9 hPa 0,0 l/m 0,0 km/h (0 Bft) N 0,00 h 16,5 C 23,5 C 0,0 km/h (0 Bft)
12.07.2023 01:00 24,0 C 22,2 C 23,2 C 23,9 C 23,6 C 0,0 C 62 % 60 % 1009,7 hPa 0,0 l/m 0,0 km/h (0 Bft) N 0,00 h 16,2 C 23,6 C 0,0 km/h (0 Bft)
12.07.2023 02:00 24,3 C 22,2 C 23,4 C 24,2 C 24,1 C 0,0 C 61 % 60 % 1009,4 hPa 0,0 l/m 0,0 km/h (0 Bft) N 0,00 h 16,4 C 24,1 C 0,0 km/h (0 Bft)
12.07.2023 03:00 24,8 C 22,1 C 24,3 C 24,4 C 23,5 C 0,0 C 59 % 56 % 1009,3 hPa 0,0 l/m 0,1 km/h (0 Bft) N 0,00 h 16,4 C 23,5 C 0,8 km/h (0 Bft)
12.07.2023 04:00 25,7 C 22,0 C 25,0 C 25,2 C 24,1 C 0,0 C 55 % 52 % 1009,7 hPa 0,0 l/m 0,4 km/h (0 Bft) SW 0,00 h 15,9 C 24,1 C 0,0 km/h (0 Bft)
12.07.2023 05:00 24,3 C 22,0 C 23,6 C 24,1 C 23,6 C 0,0 C 60 % 57 % 1009,7 hPa 0,0 l/m 2,3 km/h (1 Bft) SO 0,00 h 16,0 C 23,6 C 3,1 km/h (1 Bft)
12.07.2023 06:00 23,3 C 22,0 C 23,0 C 23,2 C 23,1 C 0,0 C 64 % 59 % 1009,6 hPa 0,0 l/m 2,3 km/h (1 Bft) S-SO 0,00 h 16,0 C 23,1 C 7,2 km/h (2 Bft)
12.07.2023 07:00 23,8 C 21,9 C 23,5 C 26,4 C 26,4 C 2,6 C 63 % 59 % 1010,0 hPa 0,0 l/m 2,6 km/h (1 Bft) S 0,33 h 16,4 C 26,4 C 5,9 km/h (2 Bft)
12.07.2023 08:00 24,7 C 21,9 C 23,9 C 29,2 C 29,2 C 4,5 C 62 % 58 % 1010,7 hPa 0,0 l/m 1,9 km/h (1 Bft) N 1,00 h 16,8 C 29,2 C 2,3 km/h (1 Bft)
12.07.2023 09:00 25,6 C 21,8 C 24,9 C 30,0 C 30,0 C 4,4 C 60 % 58 % 1011,1 hPa 0,0 l/m 1,5 km/h (1 Bft) S-SO 0,67 h 17,2 C 30,0 C 1,8 km/h (1 Bft)
12.07.2023 10:00 26,0 C 21,8 C 25,8 C 29,1 C 29,1 C 3,2 C 60 % 58 % 1011,4 hPa 0,0 l/m 0,3 km/h (0 Bft) N 0,27 h 17,6 C 29,1 C 0,5 km/h (0 Bft)
12.07.2023 11:00 26,9 C 21,9 C 26,8 C 31,1 C 31,1 C 4,2 C 59 % 57 % 1011,3 hPa 0,0 l/m 0,3 km/h (0 Bft) S-SW 0,83 h 18,3 C 31,1 C 1,5 km/h (1 Bft)
12.07.2023 12:00 24,5 C 22,4 C 22,4 C 27,5 C 27,5 C 3,0 C 75 % 85 % 1011,4 hPa 4,8 l/m 0,9 km/h (0 Bft) O-SO 0,33 h 19,8 C 27,5 C 2,6 km/h (1 Bft)
12.07.2023 13:00 25,2 C 22,1 C 22,8 C 32,2 C 32,2 C 7,1 C 76 % 89 % 1011,2 hPa 0,0 l/m 0,4 km/h (0 Bft) N 1,00 h 20,6 C 32,2 C 0,6 km/h (0 Bft)
12.07.2023 14:00 28,6 C 22,1 C 26,2 C 34,2 C 34,2 C 5,6 C 52 % 64 % 1011,4 hPa 0,0 l/m 1,0 km/h (0 Bft) SW 1,00 h 17,5 C 34,2 C 1,6 km/h (1 Bft)
12.07.2023 15:00 28,7 C 22,0 C 28,0 C 34,4 C 34,4 C 5,7 C 47 % 47 % 1011,5 hPa 0,0 l/m 1,2 km/h (1 Bft) N-NO 1,00 h 16,1 C 34,4 C 2,0 km/h (1 Bft)
12.07.2023 16:00 28,7 C 21,9 C 28,6 C 33,7 C 33,7 C 5,1 C 45 % 45 % 1011,7 hPa 0,0 l/m 1,4 km/h (1 Bft) W-SW 1,00 h 15,7 C 33,7 C 2,8 km/h (1 Bft)
12.07.2023 17:00 28,6 C 21,9 C 28,4 C 30,7 C 30,7 C 2,1 C 44 % 42 % 1011,7 hPa 0,0 l/m 1,1 km/h (0 Bft) S 0,17 h 15,1 C 30,7 C 2,6 km/h (1 Bft)
12.07.2023 18:00 28,1 C 21,9 C 27,4 C 29,2 C 29,2 C 1,1 C 44 % 42 % 1011,8 hPa 0,0 l/m 0,7 km/h (0 Bft) S 0,00 h 14,7 C 29,2 C 2,0 km/h (1 Bft)
12.07.2023 19:00 27,9 C 22,0 C 26,9 C 29,9 C 29,9 C 2,0 C 44 % 43 % 1012,0 hPa 0,0 l/m 0,4 km/h (0 Bft) W-SW 0,00 h 14,6 C 29,9 C 0,6 km/h (0 Bft)
12.07.2023 20:00 26,6 C 22,0 C 25,7 C 27,4 C 27,2 C 0,8 C 46 % 42 % 1012,1 hPa 0,0 l/m 0,7 km/h (0 Bft) W 0,18 h 13,9 C 27,2 C 1,1 km/h (0 Bft)
12.07.2023 21:00 24,4 C 22,0 C 22,9 C 23,9 C 23,0 C 0,0 C 52 % 52 % 1012,7 hPa 0,0 l/m 0,0 km/h (0 Bft) N 0,00 h 13,8 C 23,0 C 0,0 km/h (0 Bft)
12.07.2023 22:00 22,6 C 22,0 C 21,6 C 22,2 C 21,5 C 0,0 C 59 % 57 % 1013,3 hPa 0,0 l/m 0,0 km/h (0 Bft) N 0,00 h 14,1 C 21,5 C 0,0 km/h (0 Bft)
12.07.2023 23:00 21,4 C 21,9 C 20,7 C 21,2 C 20,8 C 0,0 C 59 % 56 % 1014,2 hPa 0,0 l/m 0,0 km/h (0 Bft) N 0,00 h 13,0 C 20,8 C 0,0 km/h (0 Bft)
13.07.2023 00:00 20,4 C 21,8 C 19,8 C 20,2 C 19,9 C 0,0 C 61 % 58 % 1014,9 hPa 0,0 l/m 0,0 km/h (0 Bft) N 0,00 h 12,6 C 19,9 C 0,0 km/h (0 Bft)
13.07.2023 01:00 19,6 C 21,7 C 19,1 C 19,4 C 19,0 C 0,0 C 66 % 63 % 1015,3 hPa 0,0 l/m 0,0 km/h (0 Bft) N 0,00 h 13,1 C 19,0 C 0,0 km/h (0 Bft)
13.07.2023 02:00 18,7 C 21,5 C 18,4 C 18,5 C 18,1 C 0,0 C 70 % 65 % 1015,4 hPa 0,0 l/m 0,0 km/h (0 Bft) N 0,00 h 13,2 C 18,1 C 0,0 km/h (0 Bft)
13.07.2023 03:00 17,9 C 21,5 C 17,4 C 17,6 C 16,9 C 0,0 C 74 % 69 % 1015,1 hPa 0,0 l/m 0,0 km/h (0 Bft) N 0,00 h 13,1 C 16,9 C 0,0 km/h (0 Bft)
13.07.2023 04:00 17,2 C 21,4 C 16,8 C 16,9 C 16,2 C 0,0 C 77 % 72 % 1014,8 hPa 0,0 l/m 0,0 km/h (0 Bft) N 0,00 h 13,2 C 16,2 C 0,0 km/h (0 Bft)
13.07.2023 05:00 16,5 C 21,3 C 16,3 C 16,2 C 15,7 C 0,0 C 80 % 76 % 1015,4 hPa 0,0 l/m 0,0 km/h (0 Bft) N 0,00 h 13,1 C 15,7 C 0,0 km/h (0 Bft)
13.07.2023 06:00 16,6 C 21,1 C 16,7 C 16,7 C 16,7 C 0,2 C 82 % 74 % 1015,7 hPa 0,0 l/m 0,0 km/h (0 Bft) N 0,00 h 13,5 C 16,7 C 0,0 km/h (0 Bft)
13.07.2023 07:00 18,0 C 20,9 C 18,1 C 23,0 C 23,0 C 5,0 C 81 % 72 % 1015,9 hPa 0,0 l/m 0,0 km/h (0 Bft) N 0,67 h 14,7 C 23,0 C 0,0 km/h (0 Bft)
13.07.2023 08:00 20,8 C 20,8 C 19,5 C 27,3 C 27,3 C 6,6 C 69 % 67 % 1016,2 hPa 0,0 l/m 0,0 km/h (0 Bft) N 1,00 h 14,8 C 27,3 C 0,0 km/h (0 Bft)
13.07.2023 09:00 21,7 C 20,7 C 20,3 C 26,6 C 26,6 C 4,8 C 63 % 63 % 1016,7 hPa 0,0 l/m 0,0 km/h (0 Bft) N 0,92 h 14,4 C 26,6 C 0,0 km/h (0 Bft)
13.07.2023 10:00 21,9 C 20,6 C 20,9 C 26,7 C 26,7 C 4,8 C 60 % 58 % 1017,2 hPa 0,0 l/m 0,1 km/h (0 Bft) N 0,67 h 13,9 C 26,7 C 0,6 km/h (0 Bft)
13.07.2023 11:00 23,6 C 20,6 C 22,8 C 29,4 C 29,4 C 5,7 C 54 % 53 % 1017,5 hPa 0,0 l/m 0,1 km/h (0 Bft) N 1,00 h 13,7 C 29,4 C 0,4 km/h (0 Bft)
13.07.2023 12:00 24,4 C 20,6 C 23,3 C 29,4 C 29,4 C 5,0 C 49 % 47 % 1018,2 hPa 0,0 l/m 0,5 km/h (0 Bft) SW 0,92 h 12,9 C 29,4 C 1,6 km/h (1 Bft)
13.07.2023 13:00 25,4 C 20,5 C 24,2 C 29,6 C 29,6 C 4,2 C 46 % 46 % 1018,0 hPa 0,0 l/m 0,4 km/h (0 Bft) N 0,75 h 12,9 C 29,6 C 1,2 km/h (1 Bft)
13.07.2023 14:00 26,6 C 20,5 C 25,4 C 30,8 C 30,8 C 4,2 C 42 % 43 % 1017,7 hPa 0,0 l/m 0,2 km/h (0 Bft) N 0,92 h 12,5 C 30,8 C 0,2 km/h (0 Bft)
13.07.2023 15:00 26,5 C 20,6 C 26,4 C 32,3 C 32,3 C 5,8 C 41 % 40 % 1017,7 hPa 0,0 l/m 0,3 km/h (0 Bft) S-SO 1,00 h 11,9 C 32,3 C 0,8 km/h (0 Bft)
13.07.2023 16:00 26,4 C 20,6 C 26,5 C 31,8 C 31,8 C 5,4 C 38 % 36 % 1017,5 hPa 0,0 l/m 0,5 km/h (0 Bft) N 1,00 h 10,7 C 31,8 C 1,2 km/h (1 Bft)
13.07.2023 17:00 26,0 C 20,6 C 25,9 C 27,7 C 27,7 C 1,7 C 38 % 35 % 1017,3 hPa 0,0 l/m 0,9 km/h (0 Bft) W 0,00 h 10,4 C 27,7 C 1,8 km/h (1 Bft)
13.07.2023 18:00 25,6 C 20,7 C 25,3 C 26,6 C 26,6 C 0,9 C 37 % 34 % 1017,3 hPa 0,0 l/m 0,5 km/h (0 Bft) N 0,00 h 10,0 C 26,6 C 1,4 km/h (1 Bft)
13.07.2023 19:00 24,8 C 20,7 C 24,0 C 25,7 C 25,7 C 0,9 C 39 % 35 % 1017,6 hPa 0,0 l/m 0,2 km/h (0 Bft) N 0,00 h 9,9 C 25,7 C 0,5 km/h (0 Bft)
13.07.2023 20:00 23,3 C 20,7 C 22,4 C 23,1 C 22,7 C 0,0 C 43 % 39 % 1017,8 hPa 0,0 l/m 0,0 km/h (0 Bft) N 0,00 h 10,2 C 22,7 C 0,0 km/h (0 Bft)
13.07.2023 21:00 21,9 C 20,8 C 20,8 C 21,4 C 20,5 C 0,0 C 49 % 44 % 1018,6 hPa 0,0 l/m 0,0 km/h (0 Bft) N 0,00 h 10,6 C 20,5 C 0,0 km/h (0 Bft)
13.07.2023 22:00 20,5 C 20,7 C 20,0 C 20,1 C 19,4 C 0,0 C 56 % 49 % 1019,7 hPa 0,0 l/m 0,2 km/h (0 Bft) N 0,00 h 11,3 C 19,4 C 0,4 km/h (0 Bft)
13.07.2023 23:00 19,2 C 20,7 C 18,7 C 18,8 C 18,0 C 0,0 C 60 % 51 % 1021,0 hPa 0,0 l/m 0,0 km/h (0 Bft) N 0,00 h 11,3 C 18,0 C 0,0 km/h (0 Bft)
14.07.2023 00:00 17,6 C 20,6 C 16,8 C 17,1 C 16,0 C 0,0 C 66 % 57 % 1021,4 hPa 0,0 l/m 0,0 km/h (0 Bft) N 0,00 h 11,1 C 16,0 C 0,0 km/h (0 Bft)
14.07.2023 01:00 15,9 C 20,6 C 15,2 C 15,4 C 14,4 C 0,0 C 72 % 64 % 1021,6 hPa 0,0 l/m 0,0 km/h (0 Bft) N 0,00 h 10,9 C 14,4 C 0,0 km/h (0 Bft)
14.07.2023 02:00 15,0 C 20,5 C 14,6 C 14,6 C 13,7 C 0,0 C 76 % 68 % 1021,5 hPa 0,0 l/m 0,0 km/h (0 Bft) N 0,00 h 10,8 C 13,7 C 0,0 km/h (0 Bft)
14.07.2023 03:00 14,4 C 20,4 C 14,1 C 14,1 C 13,4 C 0,0 C 79 % 70 % 1021,4 hPa 0,0 l/m 0,0 km/h (0 Bft) N 0,00 h 10,8 C 13,4 C 0,0 km/h (0 Bft)
14.07.2023 04:00 13,6 C 20,3 C 13,1 C 13,1 C 12,2 C 0,0 C 81 % 72 % 1021,4 hPa 0,0 l/m 0,0 km/h (0 Bft) N 0,00 h 10,3 C 12,2 C 0,0 km/h (0 Bft)
14.07.2023 05:00 12,8 C 20,3 C 12,2 C 12,3 C 11,3 C 0,0 C 82 % 75 % 1021,3 hPa 0,0 l/m 0,0 km/h (0 Bft) N 0,00 h 9,8 C 11,3 C 0,0 km/h (0 Bft)
14.07.2023 06:00 12,6 C 20,1 C 12,5 C 12,4 C 11,9 C 0,0 C 84 % 77 % 1021,1 hPa 0,0 l/m 0,0 km/h (0 Bft) N 0,00 h 10,1 C 11,9 C 0,0 km/h (0 Bft)
14.07.2023 07:00 14,5 C 19,7 C 14,9 C 22,0 C 22,0 C 7,5 C 86 % 74 % 1021,1 hPa 0,0 l/m 0,0 km/h (0 Bft) N 0,75 h 12,2 C 22,0 C 0,0 km/h (0 Bft)
14.07.2023 08:00 18,9 C 19,5 C 16,9 C 31,1 C 31,1 C 12,2 C 74 % 69 % 1020,9 hPa 0,0 l/m 0,0 km/h (0 Bft) N 1,00 h 14,2 C 31,1 C 0,0 km/h (0 Bft)
14.07.2023 09:00 22,1 C 19,5 C 18,4 C 31,7 C 31,7 C 9,6 C 57 % 61 % 1020,8 hPa 0,0 l/m 0,0 km/h (0 Bft) N 0,93 h 13,2 C 31,7 C 0,0 km/h (0 Bft)
14.07.2023 10:00 22,2 C 19,5 C 20,6 C 28,2 C 28,2 C 6,0 C 55 % 52 % 1020,8 hPa 0,0 l/m 0,0 km/h (0 Bft) N 0,58 h 12,7 C 28,2 C 0,1 km/h (0 Bft)
14.07.2023 11:00 23,6 C 19,5 C 22,4 C 31,0 C 31,0 C 7,4 C 51 % 48 % 1020,2 hPa 0,0 l/m 0,3 km/h (0 Bft) N 1,00 h 12,7 C 31,0 C 1,1 km/h (1 Bft)
14.07.2023 12:00 25,9 C 19,6 C 24,0 C 33,4 C 33,4 C 7,5 C 44 % 45 % 1019,5 hPa 0,0 l/m 0,3 km/h (0 Bft) N 1,00 h 12,5 C 33,4 C 1,2 km/h (1 Bft)
14.07.2023 13:00 26,9 C 19,8 C 24,7 C 31,4 C 31,4 C 4,5 C 39 % 42 % 1018,7 hPa 0,0 l/m 0,2 km/h (0 Bft) N 1,00 h 11,9 C 31,4 C 0,3 km/h (0 Bft)
14.07.2023 14:00 28,2 C 19,9 C 28,0 C 34,5 C 34,5 C 6,3 C 36 % 40 % 1018,1 hPa 0,0 l/m 0,2 km/h (0 Bft) N 1,00 h 11,9 C 34,5 C 0,5 km/h (0 Bft)
14.07.2023 15:00 27,2 C 20,3 C 27,7 C 33,6 C 33,6 C 6,5 C 36 % 35 % 1017,4 hPa 0,0 l/m 1,1 km/h (1 Bft) NO 1,00 h 10,9 C 33,6 C 0,0 km/h (0 Bft)
14.07.2023 16:00 27,2 C 20,8 C 27,3 C 33,2 C 33,2 C 6,0 C 37 % 36 % 1016,8 hPa 0,0 l/m 0,0 km/h (0 Bft) N 1,00 h 11,0 C 33,2 C 0,0 km/h (0 Bft)
14.07.2023 17:00 28,2 C 20,8 C 28,5 C 33,2 C 33,2 C 5,0 C 35 % 35 % 1016,1 hPa 0,0 l/m 0,0 km/h (0 Bft) N 1,00 h 11,4 C 33,2 C 0,0 km/h (0 Bft)
14.07.2023 18:00 28,6 C 20,7 C 27,5 C 33,2 C 33,2 C 4,6 C 34 % 34 % 1015,2 hPa 0,0 l/m 0,0 km/h (0 Bft) N 1,00 h 11,0 C 33,2 C 0,0 km/h (0 Bft)
14.07.2023 19:00 27,9 C 20,8 C 26,1 C 33,2 C 33,2 C 5,3 C 35 % 36 % 1014,8 hPa 0,0 l/m 0,0 km/h (0 Bft) N 1,00 h 11,0 C 33,2 C 0,0 km/h (0 Bft)
14.07.2023 20:00 26,2 C 20,9 C 23,9 C 33,2 C 33,2 C 7,0 C 39 % 41 % 1014,6 hPa 0,0 l/m 0,0 km/h (0 Bft) N 1,00 h 11,3 C 33,2 C 0,0 km/h (0 Bft)
14.07.2023 21:00 22,9 C 20,9 C 20,6 C 33,2 C 33,2 C 10,3 C 51 % 50 % 1014,8 hPa 0,0 l/m 0,0 km/h (0 Bft) N 0,17 h 12,1 C 33,2 C 0,0 km/h (0 Bft)
14.07.2023 22:00 19,9 C 20,9 C 18,3 C 33,2 C 33,2 C 13,3 C 63 % 61 % 1014,8 hPa 0,0 l/m 0,0 km/h (0 Bft) N 0,00 h 12,7 C 33,2 C 0,0 km/h (0 Bft)
14.07.2023 23:00 17,7 C 20,9 C 16,6 C 33,2 C 33,2 C 15,5 C 70 % 65 % 1014,7 hPa 0,0 l/m 0,0 km/h (0 Bft) N 0,00 h 12,3 C 33,2 C 0,0 km/h (0 Bft)
15.07.2023 00:00 16,1 C 20,7 C 15,4 C 17,0 C 16,1 C 1,4 C 76 % 69 % 1015,2 hPa 0,0 l/m 0,0 km/h (0 Bft) N 0,00 h 11,8 C 16,1 C 0,0 km/h (0 Bft)
15.07.2023 01:00 15,1 C 20,6 C 14,6 C 14,6 C 13,6 C 0,0 C 79 % 71 % 1015,0 hPa 0,0 l/m 0,0 km/h (0 Bft) N 0,00 h 11,4 C 13,6 C 0,0 km/h (0 Bft)
15.07.2023 02:00 14,3 C 20,5 C 14,0 C 14,0 C 13,2 C 0,0 C 81 % 73 % 1014,8 hPa 0,0 l/m 0,0 km/h (0 Bft) N 0,00 h 11,1 C 13,2 C 0,0 km/h (0 Bft)
15.07.2023 03:00 13,8 C 20,2 C 13,5 C 13,4 C 12,8 C 0,0 C 82 % 73 % 1014,6 hPa 0,0 l/m 0,0 km/h (0 Bft) N 0,00 h 10,8 C 12,8 C 0,0 km/h (0 Bft)
15.07.2023 04:00 13,2 C 20,1 C 13,0 C 12,9 C 12,3 C 0,0 C 83 % 73 % 1014,6 hPa 0,0 l/m 0,0 km/h (0 Bft) N 0,00 h 10,4 C 12,3 C 0,0 km/h (0 Bft)
15.07.2023 05:00 12,9 C 19,9 C 12,6 C 12,6 C 11,9 C 0,0 C 84 % 73 % 1013,9 hPa 0,0 l/m 0,0 km/h (0 Bft) N 0,00 h 10,2 C 11,9 C 0,0 km/h (0 Bft)
15.07.2023 06:00 13,1 C 19,7 C 13,1 C 13,1 C 13,0 C 0,1 C 85 % 73 % 1013,9 hPa 0,0 l/m 0,0 km/h (0 Bft) N 0,00 h 10,6 C 13,0 C 0,0 km/h (0 Bft)
15.07.2023 07:00 15,4 C 19,4 C 16,1 C 23,8 C 23,8 C 8,4 C 85 % 70 % 1013,7 hPa 0,0 l/m 0,0 km/h (0 Bft) N 0,75 h 12,9 C 23,8 C 0,0 km/h (0 Bft)
15.07.2023 08:00 22,7 C 19,3 C 20,2 C 34,8 C 34,8 C 12,1 C 67 % 65 % 1013,8 hPa 0,0 l/m 0,3 km/h (0 Bft) S 1,00 h 16,2 C 34,8 C 0,5 km/h (0 Bft)
15.07.2023 09:00 27,6 C 19,4 C 24,6 C 35,0 C 35,0 C 7,4 C 50 % 53 % 1013,4 hPa 0,0 l/m 0,2 km/h (0 Bft) N 1,00 h 16,1 C 35,0 C 0,0 km/h (0 Bft)
15.07.2023 10:00 29,4 C 19,5 C 26,6 C 36,4 C 36,4 C 7,0 C 42 % 47 % 1013,2 hPa 0,0 l/m 0,1 km/h (0 Bft) N 1,00 h 15,2 C 36,4 C 0,5 km/h (0 Bft)
15.07.2023 11:00 31,1 C 19,8 C 28,4 C 36,8 C 36,8 C 5,7 C 37 % 42 % 1012,9 hPa 0,0 l/m 0,8 km/h (0 Bft) W-SW 0,75 h 14,8 C 36,8 C 2,0 km/h (1 Bft)
15.07.2023 12:00 33,1 C 20,0 C 30,3 C 38,9 C 38,9 C 5,8 C 34 % 40 % 1012,8 hPa 0,0 l/m 0,8 km/h (0 Bft) SO 1,00 h 15,0 C 38,9 C 1,7 km/h (1 Bft)
15.07.2023 13:00 35,7 C 20,3 C 32,0 C 40,3 C 40,3 C 4,7 C 30 % 39 % 1012,6 hPa 0,0 l/m 0,3 km/h (0 Bft) N 1,00 h 15,5 C 40,3 C 0,0 km/h (0 Bft)
15.07.2023 14:00 36,6 C 20,6 C 35,5 C 41,8 C 41,8 C 5,2 C 28 % 38 % 1012,2 hPa 0,0 l/m 0,3 km/h (0 Bft) N 1,00 h 14,8 C 41,8 C 1,4 km/h (1 Bft)
15.07.2023 15:00 36,6 C 21,0 C 35,9 C 41,9 C 41,9 C 5,2 C 26 % 34 % 1011,8 hPa 0,0 l/m 0,2 km/h (0 Bft) SO 0,83 h 13,9 C 41,9 C 0,1 km/h (0 Bft)
15.07.2023 16:00 35,6 C 21,3 C 34,6 C 39,8 C 39,8 C 4,2 C 28 % 34 % 1011,2 hPa 0,0 l/m 0,9 km/h (0 Bft) O-NO 0,75 h 14,4 C 39,8 C 1,8 km/h (1 Bft)
15.07.2023 17:00 35,1 C 21,7 C 34,6 C 38,6 C 38,6 C 3,5 C 29 % 32 % 1010,7 hPa 0,0 l/m 0,3 km/h (0 Bft) O 1,00 h 14,1 C 38,6 C 0,0 km/h (0 Bft)
15.07.2023 18:00 34,7 C 21,9 C 33,4 C 38,6 C 38,6 C 3,9 C 30 % 33 % 1010,3 hPa 0,0 l/m 0,0 km/h (0 Bft) N 1,00 h 14,5 C 38,6 C 0,0 km/h (0 Bft)
15.07.2023 19:00 33,4 C 22,1 C 32,0 C 38,6 C 38,6 C 5,2 C 33 % 35 % 1010,0 hPa 0,0 l/m 0,0 km/h (0 Bft) N 1,00 h 14,8 C 38,6 C 0,0 km/h (0 Bft)
15.07.2023 20:00 30,7 C 22,3 C 28,6 C 38,6 C 38,6 C 7,9 C 38 % 39 % 1009,5 hPa 0,0 l/m 0,0 km/h (0 Bft) N 1,00 h 14,7 C 38,6 C 0,0 km/h (0 Bft)
15.07.2023 21:00 28,0 C 22,4 C 26,6 C 38,6 C 38,6 C 10,5 C 47 % 48 % 1010,6 hPa 0,0 l/m 0,0 km/h (0 Bft) N 0,08 h 15,8 C 38,6 C 0,0 km/h (0 Bft)
15.07.2023 22:00 25,1 C 22,4 C 24,3 C 38,6 C 38,6 C 13,5 C 61 % 60 % 1013,3 hPa 0,0 l/m 0,0 km/h (0 Bft) N 0,00 h 16,9 C 38,6 C 0,0 km/h (0 Bft)
15.07.2023 23:00 22,5 C 22,3 C 22,0 C 38,6 C 38,6 C 16,1 C 72 % 71 % 1011,3 hPa 0,0 l/m 0,0 km/h (0 Bft) N 0,00 h 17,1 C 38,6 C 0,0 km/h (0 Bft)
16.07.2023 00:00 21,4 C 22,3 C 20,7 C 38,6 C 38,6 C 17,2 C 75 % 72 % 1011,0 hPa 0,0 l/m 0,0 km/h (0 Bft) N 0,00 h 16,8 C 38,6 C 0,0 km/h (0 Bft)
16.07.2023 01:00 20,6 C 22,2 C 20,6 C 35,6 C 35,6 C 15,0 C 79 % 73 % 1012,3 hPa 0,0 l/m 0,4 km/h (0 Bft) W-SW 0,00 h 16,8 C 35,6 C 0,5 km/h (0 Bft)
16.07.2023 02:00 20,3 C 22,4 C 19,5 C 19,9 C 19,2 C 0,0 C 81 % 86 % 1014,6 hPa 1,4 l/m 1,3 km/h (1 Bft) S-SO 0,00 h 16,9 C 19,2 C 3,0 km/h (1 Bft)
16.07.2023 03:00 19,1 C 22,4 C 18,5 C 18,8 C 18,1 C 0,0 C 85 % 90 % 1014,0 hPa 0,7 l/m 0,0 km/h (0 Bft) N 0,00 h 16,5 C 18,1 C 0,2 km/h (0 Bft)
16.07.2023 04:00 18,9 C 22,2 C 18,4 C 18,6 C 18,2 C 0,0 C 87 % 90 % 1014,2 hPa 0,7 l/m 0,0 km/h (0 Bft) N 0,00 h 16,5 C 18,2 C 0,0 km/h (0 Bft)
16.07.2023 05:00 18,8 C 22,1 C 18,5 C 18,6 C 18,3 C 0,0 C 87 % 90 % 1014,2 hPa 0,7 l/m 0,1 km/h (0 Bft) N 0,00 h 16,6 C 18,3 C 0,0 km/h (0 Bft)
16.07.2023 06:00 18,6 C 22,0 C 18,6 C 18,6 C 18,4 C 0,0 C 88 % 90 % 1013,2 hPa 0,0 l/m 0,1 km/h (0 Bft) N 0,00 h 16,6 C 18,4 C 0,0 km/h (0 Bft)
16.07.2023 07:00 19,3 C 21,8 C 19,5 C 23,1 C 23,1 C 3,8 C 88 % 90 % 1014,8 hPa 0,0 l/m 0,9 km/h (0 Bft) S 0,50 h 17,2 C 23,1 C 3,1 km/h (1 Bft)
16.07.2023 08:00 21,2 C 21,6 C 19,8 C 26,8 C 26,8 C 5,7 C 85 % 90 % 1015,5 hPa 0,0 l/m 0,8 km/h (0 Bft) SW 0,90 h 18,4 C 26,8 C 3,3 km/h (1 Bft)
16.07.2023 09:00 22,3 C 21,3 C 20,1 C 28,2 C 28,2 C 5,9 C 73 % 80 % 1015,9 hPa 0,0 l/m 1,4 km/h (1 Bft) S 0,83 h 17,2 C 28,2 C 1,0 km/h (0 Bft)
16.07.2023 10:00 22,3 C 21,2 C 20,5 C 24,9 C 24,9 C 2,6 C 67 % 69 % 1016,7 hPa 0,0 l/m 0,3 km/h (0 Bft) N 0,27 h 16,0 C 24,9 C 1,1 km/h (1 Bft)
16.07.2023 11:00 22,9 C 21,0 C 21,5 C 26,6 C 26,6 C 3,7 C 63 % 61 % 1017,0 hPa 0,0 l/m 0,5 km/h (0 Bft) N 0,50 h 15,4 C 26,6 C 2,2 km/h (1 Bft)
16.07.2023 12:00 24,1 C 20,9 C 23,4 C 27,5 C 27,5 C 3,4 C 56 % 54 % 1017,2 hPa 0,0 l/m 2,6 km/h (1 Bft) SO 0,77 h 14,7 C 27,5 C 4,0 km/h (1 Bft)
16.07.2023 13:00 26,0 C 20,8 C 24,9 C 30,2 C 30,2 C 4,2 C 52 % 51 % 1017,2 hPa 0,0 l/m 2,0 km/h (1 Bft) S-SW 0,97 h 15,2 C 30,2 C 1,8 km/h (1 Bft)
16.07.2023 14:00 27,2 C 20,8 C 27,5 C 31,6 C 31,6 C 4,4 C 48 % 47 % 1017,3 hPa 0,0 l/m 2,0 km/h (1 Bft) SW 1,00 h 15,1 C 31,6 C 3,4 km/h (1 Bft)
16.07.2023 15:00 26,8 C 20,9 C 28,2 C 32,2 C 32,2 C 5,4 C 45 % 42 % 1017,6 hPa 0,0 l/m 1,9 km/h (1 Bft) W-NW 1,00 h 13,8 C 32,2 C 4,2 km/h (1 Bft)
16.07.2023 16:00 27,1 C 20,9 C 27,9 C 32,4 C 32,4 C 5,3 C 43 % 41 % 1017,9 hPa 0,0 l/m 1,4 km/h (1 Bft) W-SW 1,00 h 13,5 C 32,4 C 1,8 km/h (1 Bft)
16.07.2023 17:00 27,2 C 21,0 C 27,5 C 31,6 C 31,6 C 4,5 C 41 % 39 % 1017,5 hPa 0,0 l/m 0,0 km/h (0 Bft) N 1,00 h 12,8 C 31,6 C 0,2 km/h (0 Bft)
16.07.2023 18:00 26,9 C 21,0 C 26,5 C 31,6 C 31,6 C 4,7 C 40 % 38 % 1017,2 hPa 0,0 l/m 0,0 km/h (0 Bft) N 1,00 h 12,2 C 31,6 C 0,0 km/h (0 Bft)
16.07.2023 19:00 26,6 C 21,0 C 25,7 C 31,6 C 31,6 C 5,0 C 41 % 39 % 1017,3 hPa 0,0 l/m 0,0 km/h (0 Bft) N 1,00 h 12,1 C 31,6 C 0,0 km/h (0 Bft)
16.07.2023 20:00 25,4 C 21,2 C 23,6 C 31,6 C 31,6 C 6,2 C 43 % 43 % 1017,6 hPa 0,0 l/m 0,0 km/h (0 Bft) N 1,00 h 11,8 C 31,6 C 0,0 km/h (0 Bft)
16.07.2023 21:00 22,3 C 21,2 C 20,2 C 31,6 C 31,6 C 9,3 C 52 % 51 % 1017,8 hPa 0,0 l/m 0,0 km/h (0 Bft) N 0,08 h 11,9 C 31,6 C 0,0 km/h (0 Bft)
16.07.2023 22:00 19,4 C 21,2 C 17,8 C 29,1 C 28,8 C 9,8 C 62 % 60 % 1018,8 hPa 0,0 l/m 0,0 km/h (0 Bft) N 0,00 h 11,8 C 28,8 C 0,0 km/h (0 Bft)
16.07.2023 23:00 17,4 C 21,2 C 16,3 C 16,7 C 15,3 C 0,0 C 71 % 67 % 1018,4 hPa 0,0 l/m 0,0 km/h (0 Bft) N 0,00 h 12,0 C 15,3 C 0,0 km/h (0 Bft)
Min-Datum _ 14.07.23 15.07.23 14.07.23 14.07.23 14.07.23 10.07.23 15.07.23 15.07.23 12.07.23 - 10.07.23 - - 13.07.23 14.07.23 10.07.23
_ Min-Zeit 06:11 07:30 05:35 05:45 05:30 00:00 14:45 17:55 02:26 - 00:00 - - 19:55 05:30 00:00
Minimum _ 12,4 C 19,3 C 12,0 C 12,1 C 11,2 C 0,0 C 25 % 30 % 1009,2 hPa - 0,0 km/h (0 Bft) - - 9,6 C 11,2 C 0,0 km/h (0 Bft)
Max-Datum _ 15.07.23 11.07.23 15.07.23 15.07.23 15.07.23 16.07.23 11.07.23 12.07.23 14.07.23 12.07.23 16.07.23 - 16.07.23 12.07.23 15.07.23 10.07.23
_ Max-Zeit 15:20 22:05 14:55 15:20 15:20 01:25 06:47 12:32 01:15 12:11 12:41 - 18:41 13:11 15:20 15:05
Maximum _ 37,1 C 22,5 C 37,7 C 44,2 C 44,2 C 18,1 C 88 % 90 % 1021,8 hPa 4,8 l/m 6,8 km/h
SO (2 Bft)
- 0,27 h 21,6 C 44,2 C 31,7 km/h
W-SW (5 Bft)
Durchschnitt _ 23,6 C 21,2 C 22,7 C 27,1 C 26,8 C 3,6 C 60 % 58 % 1015,9 hPa #8,2 l/m 0,4 km/h (0 Bft) W-SW #73:18 h 14,5 C 26,8 C 0,8 km/h (0 Bft)
2023 www.wetterstation-wechselburg.de